Time;durP1;ratioP1;P1;durP2;ratioP2;P2;SDS_P1;SDS_P2;PMS_P1;PMS_P2;Temp;Humidity;BMP_temperature;BMP_pressure;BME280_temperature;BME280_humidity;BME280_pressure;Samples;Min_cycle;Max_cycle;Signal;HPM_P1;HPM_P2
2023/03/20 00:01:22;;;;;;;2.70;1.43;;;7.80;99.90;;;;;;5089746;28;20497;-65
2023/03/20 00:03:49;;;;;;;6.00;1.63;;;7.70;99.90;;;;;;5078021;28;20843;-66
2023/03/20 00:06:18;;;;;;;2.53;1.30;;;7.80;99.90;;;;;;5090160;28;20469;-65
2023/03/20 00:08:45;;;;;;;2.10;1.40;;;7.70;99.90;;;;;;5071580;28;20435;-65
2023/03/20 00:11:29;;;;;;;2.60;1.30;;;7.70;99.90;;;;;;5072470;28;20427;-65
2023/03/20 00:14:23;;;;;;;2.40;1.10;;;7.80;99.90;;;;;;5085430;28;20849;-65
2023/03/20 00:16:50;;;;;;;3.17;1.37;;;7.80;99.90;;;;;;5089843;28;20944;-65
2023/03/20 00:19:24;;;;;;;2.27;1.40;;;7.80;99.90;;;;;;5090547;28;20774;-65
2023/03/20 00:21:51;;;;;;;2.90;1.20;;;7.80;99.90;;;;;;5076661;28;20947;-65
2023/03/20 00:24:17;;;;;;;2.13;1.10;;;7.90;99.90;;;;;;5082502;28;20421;-65
2023/03/20 00:26:45;;;;;;;2.93;1.50;;;7.90;99.90;;;;;;5071650;28;20438;-65
2023/03/20 00:29:31;;;;;;;5.23;1.40;;;7.80;99.90;;;;;;5090305;28;20501;-65
2023/03/20 00:31:57;;;;;;;2.57;1.30;;;7.90;99.90;;;;;;5085934;28;20422;-65
2023/03/20 00:34:26;;;;;;;1.57;1.00;;;7.90;99.90;;;;;;5078000;28;20451;-65
2023/03/20 00:36:52;;;;;;;1.43;0.87;;;7.90;99.90;;;;;;5087314;28;20512;-65
2023/03/20 00:39:18;;;;;;;1.63;0.90;;;7.90;99.90;;;;;;5081428;28;20418;-65
2023/03/20 00:41:53;;;;;;;1.57;0.67;;;8.00;99.90;;;;;;5090153;28;20441;-66
2023/03/20 00:44:21;;;;;;;2.27;0.90;;;7.90;99.90;;;;;;5090326;28;20418;-65
2023/03/20 00:46:54;;;;;;;2.17;0.83;;;7.90;99.90;;;;;;5084605;28;20419;-65
2023/03/20 00:49:26;;;;;;;1.37;0.47;;;7.90;99.90;;;;;;5084497;28;20414;-65
2023/03/20 00:51:52;;;;;;;1.10;0.40;;;8.00;99.90;;;;;;5094039;28;20418;-65
2023/03/20 00:54:18;;;;;;;3.27;0.60;;;7.90;99.90;;;;;;5094031;28;20414;-65
2023/03/20 00:56:55;;;;;;;2.33;0.70;;;7.90;99.90;;;;;;5094437;28;20187;-65
2023/03/20 00:59:24;;;;;;;1.10;0.50;;;7.90;99.90;;;;;;5080003;28;20188;-65
2023/03/20 01:01:50;;;;;;;1.20;0.50;;;7.90;99.90;;;;;;5093746;28;20890;-66
2023/03/20 01:04:18;;;;;;;1.10;0.40;;;7.90;99.90;;;;;;5080152;28;20493;-66
2023/03/20 01:06:44;;;;;;;1.10;0.40;;;7.90;99.90;;;;;;5091487;28;20203;-65
2023/03/20 01:09:10;;;;;;;1.10;0.40;;;7.90;99.90;;;;;;5074622;28;20419;-65
2023/03/20 01:11:37;;;;;;;1.63;0.70;;;7.90;99.90;;;;;;5082897;28;20879;-65
2023/03/20 01:14:05;;;;;;;1.20;0.50;;;7.90;99.90;;;;;;5093569;28;20426;-65
2023/03/20 01:16:30;;;;;;;1.17;0.50;;;7.90;99.90;;;;;;5084101;28;20962;-65
2023/03/20 01:18:56;;;;;;;1.67;0.77;;;8.00;99.90;;;;;;5087097;28;20419;-66
2023/03/20 01:21:22;;;;;;;1.20;0.50;;;7.90;99.90;;;;;;5076482;28;20662;-65
2023/03/20 01:23:48;;;;;;;1.10;0.50;;;7.90;99.90;;;;;;5089679;28;20230;-65
2023/03/20 01:26:22;;;;;;;1.20;0.50;;;7.90;99.90;;;;;;5093802;28;20237;-65
2023/03/20 01:28:49;;;;;;;2.03;0.57;;;7.90;99.90;;;;;;5093466;28;20502;-65
2023/03/20 01:31:16;;;;;;;1.10;0.40;;;7.90;99.90;;;;;;5093728;28;20795;-65
2023/03/20 01:33:42;;;;;;;1.30;0.60;;;8.00;99.90;;;;;;5074313;28;20421;-65
2023/03/20 01:36:12;;;;;;;1.10;0.40;;;7.80;99.90;;;;;;5085405;28;20414;-65
2023/03/20 01:38:39;;;;;;;2.13;0.60;;;7.80;99.90;;;;;;5083154;28;20680;-65
2023/03/20 01:41:15;;;;;;;1.50;0.40;;;7.70;99.90;;;;;;5093371;28;20411;-65
2023/03/20 01:43:42;;;;;;;2.03;0.50;;;7.70;99.90;;;;;;5092728;28;20430;-65
2023/03/20 01:46:10;;;;;;;1.10;0.50;;;7.60;99.90;;;;;;5092913;28;20454;-65
2023/03/20 01:48:51;;;;;;;1.10;0.50;;;7.60;99.90;;;;;;5093423;28;20425;-65
2023/03/20 01:51:28;;;;;;;1.10;0.40;;;7.60;99.90;;;;;;5079426;28;20419;-65
2023/03/20 01:54:13;;;;;;;1.20;0.50;;;7.50;99.90;;;;;;5093271;28;20414;-65
2023/03/20 01:56:45;;;;;;;1.20;0.60;;;7.50;99.90;;;;;;5093094;28;21221;-65
2023/03/20 01:59:20;;;;;;;1.30;0.50;;;7.50;99.90;;;;;;5091902;28;20431;-65
2023/03/20 02:01:45;;;;;;;2.37;0.70;;;7.50;99.90;;;;;;5079363;28;20433;-65
2023/03/20 02:04:14;;;;;;;1.63;0.53;;;7.50;99.90;;;;;;5093020;28;20418;-65
2023/03/20 02:06:40;;;;;;;1.10;0.50;;;7.50;99.90;;;;;;5090778;28;20211;-65
2023/03/20 02:09:07;;;;;;;1.10;0.47;;;7.50;99.90;;;;;;5073673;28;20464;-65
2023/03/20 02:11:33;;;;;;;1.30;0.60;;;7.50;99.90;;;;;;5079853;28;21105;-65
2023/03/20 02:14:00;;;;;;;1.10;0.50;;;7.50;99.90;;;;;;5092494;28;20410;-66
2023/03/20 02:16:26;;;;;;;1.20;0.47;;;7.50;99.90;;;;;;5092876;28;20500;-65
2023/03/20 02:18:57;;;;;;;1.23;0.50;;;7.50;99.90;;;;;;5079514;28;20419;-65
2023/03/20 02:21:44;;;;;;;2.90;1.07;;;7.50;99.90;;;;;;5083068;28;20415;-65
2023/03/20 02:24:26;;;;;;;1.10;0.40;;;7.50;99.90;;;;;;5091711;28;20464;-65
2023/03/20 02:27:04;;;;;;;1.30;0.60;;;7.50;99.90;;;;;;5077598;28;20431;-65
2023/03/20 02:30:00;;;;;;;1.60;0.60;;;7.50;99.90;;;;;;5081448;28;20415;-65
2023/03/20 02:32:53;;;;;;;1.13;0.50;;;7.60;99.90;;;;;;5083467;28;20457;-65
2023/03/20 02:35:51;;;;;;;1.37;0.57;;;7.50;99.90;;;;;;5084961;28;20410;-65
2023/03/20 02:38:53;;;;;;;2.03;0.50;;;7.50;99.90;;;;;;5082127;28;20418;-65
2023/03/20 02:41:26;;;;;;;1.10;0.50;;;7.50;99.90;;;;;;5091862;28;20413;-65
2023/03/20 02:44:24;;;;;;;1.20;0.50;;;7.70;99.90;;;;;;5091546;28;20513;-65
2023/03/20 02:47:25;;;;;;;1.40;0.50;;;7.60;99.90;;;;;;5077901;28;20438;-65
2023/03/20 02:50:09;;;;;;;2.33;0.60;;;7.60;99.90;;;;;;5073113;28;20513;-65
2023/03/20 02:52:34;;;;;;;1.57;0.50;;;7.60;99.90;;;;;;5091026;28;20417;-65
2023/03/20 02:55:00;;;;;;;1.20;0.60;;;7.60;99.90;;;;;;5079189;28;20410;-65
2023/03/20 02:57:47;;;;;;;1.30;0.70;;;7.60;99.90;;;;;;5091852;28;20169;-66
2023/03/20 03:00:25;;;;;;;1.20;0.50;;;7.60;99.90;;;;;;5092291;28;20448;-65
2023/03/20 03:03:01;;;;;;;1.83;0.60;;;7.60;99.90;;;;;;5093540;22;20493;-65
2023/03/20 03:05:35;;;;;;;1.10;0.50;;;7.60;99.90;;;;;;5071696;28;20462;-65
2023/03/20 03:08:03;;;;;;;1.10;0.43;;;7.60;99.90;;;;;;5064345;28;20404;-65
2023/03/20 03:10:35;;;;;;;1.20;0.50;;;7.50;99.90;;;;;;5063257;28;20473;-65
2023/03/20 03:13:03;;;;;;;1.63;0.50;;;7.50;99.90;;;;;;5070309;28;20419;-65
2023/03/20 03:15:36;;;;;;;1.20;0.50;;;7.60;99.90;;;;;;5071421;28;20434;-65
2023/03/20 03:18:05;;;;;;;1.90;0.63;;;7.50;99.90;;;;;;5071250;28;20427;-66
2023/03/20 03:20:37;;;;;;;1.10;0.50;;;7.50;99.90;;;;;;5071491;28;20427;-65
2023/03/20 03:23:04;;;;;;;1.10;0.40;;;7.50;99.90;;;;;;5061194;28;20422;-65
2023/03/20 03:25:38;;;;;;;1.53;0.67;;;7.50;99.90;;;;;;5057843;28;20950;-65
2023/03/20 03:28:25;;;;;;;1.23;0.50;;;7.40;99.90;;;;;;5070521;28;20839;-65
2023/03/20 03:30:53;;;;;;;1.20;0.50;;;7.40;99.90;;;;;;5071334;28;20443;-65
2023/03/20 03:33:22;;;;;;;1.20;0.50;;;7.40;99.90;;;;;;5070043;28;20419;-65
2023/03/20 03:35:50;;;;;;;1.50;0.60;;;7.40;99.90;;;;;;5071287;28;20418;-66
2023/03/20 03:38:15;;;;;;;1.40;0.60;;;7.40;99.90;;;;;;5070640;28;20766;-66
2023/03/20 03:40:46;;;;;;;2.27;0.90;;;7.40;99.90;;;;;;5071186;28;20457;-65
2023/03/20 03:43:30;;;;;;;2.87;0.60;;;7.40;99.90;;;;;;5070120;28;20193;-65
2023/03/20 03:46:08;;;;;;;1.10;0.50;;;7.40;99.90;;;;;;5070952;28;20474;-65
2023/03/20 03:48:47;;;;;;;1.60;0.50;;;7.30;99.90;;;;;;5062219;28;20428;-65
2023/03/20 03:51:20;;;;;;;1.20;0.60;;;7.40;99.90;;;;;;5066955;28;20439;-65
2023/03/20 03:53:53;;;;;;;1.30;0.63;;;7.40;99.90;;;;;;5063187;28;20439;-65
2023/03/20 03:56:22;;;;;;;1.27;0.53;;;7.40;99.90;;;;;;5070495;28;20494;-65
2023/03/20 03:58:52;;;;;;;2.33;0.70;;;7.40;99.90;;;;;;5070342;28;20477;-66
2023/03/20 04:01:20;;;;;;;1.40;0.60;;;7.40;99.90;;;;;;5070580;28;20831;-65
2023/03/20 04:04:00;;;;;;;1.30;0.50;;;7.40;99.90;;;;;;5070280;28;20506;-65
2023/03/20 04:06:27;;;;;;;2.33;0.83;;;7.40;99.90;;;;;;5058571;28;20459;-65
2023/03/20 04:08:52;;;;;;;1.30;0.60;;;7.40;99.90;;;;;;5067497;28;20448;-65
2023/03/20 04:11:21;;;;;;;1.20;0.50;;;7.40;99.90;;;;;;5070748;28;20451;-66
2023/03/20 04:13:48;;;;;;;1.60;0.80;;;7.40;99.90;;;;;;5069790;28;20188;-65
2023/03/20 04:16:15;;;;;;;1.30;0.70;;;7.40;99.90;;;;;;5070743;28;20962;-65
2023/03/20 04:18:41;;;;;;;1.57;0.70;;;7.50;99.90;;;;;;5070368;28;20892;-66
2023/03/20 04:21:08;;;;;;;1.30;0.60;;;7.50;99.90;;;;;;5070946;28;20419;-66
2023/03/20 04:23:34;;;;;;;2.23;1.07;;;7.50;99.90;;;;;;5069700;28;20419;-65
2023/03/20 04:26:01;;;;;;;1.40;0.60;;;7.40;99.90;;;;;;5074355;28;20550;-65
2023/03/20 04:28:26;;;;;;;1.20;0.60;;;7.40;99.90;;;;;;5074148;28;20454;-65
2023/03/20 04:30:57;;;;;;;1.30;0.63;;;7.40;99.90;;;;;;5075106;28;20447;-67
2023/03/20 04:33:24;;;;;;;1.30;0.70;;;7.40;99.90;;;;;;5074501;28;20525;-66
2023/03/20 04:35:50;;;;;;;1.13;0.50;;;7.40;99.90;;;;;;5075008;28;20951;-66
2023/03/20 04:38:17;;;;;;;1.20;0.57;;;7.30;99.90;;;;;;5074225;28;20964;-66
2023/03/20 04:40:44;;;;;;;1.43;0.70;;;7.20;99.90;;;;;;5074917;28;20574;-66
2023/03/20 04:43:09;;;;;;;1.40;0.60;;;7.20;99.90;;;;;;5073526;28;20489;-66
2023/03/20 04:45:35;;;;;;;1.87;0.70;;;7.10;99.90;;;;;;5074564;28;20455;-67
2023/03/20 04:48:01;;;;;;;1.37;0.50;;;7.00;99.90;;;;;;5074335;28;20538;-66
2023/03/20 04:50:27;;;;;;;1.47;0.70;;;7.00;99.90;;;;;;5074501;28;20205;-66
2023/03/20 04:52:52;;;;;;;2.13;0.70;;;6.90;99.90;;;;;;5073905;28;20220;-66
2023/03/20 04:55:18;;;;;;;2.13;1.13;;;6.90;99.90;;;;;;5075078;28;20510;-66
2023/03/20 04:57:44;;;;;;;1.70;0.70;;;6.90;99.90;;;;;;5074598;28;20634;-66
2023/03/20 05:00:11;;;;;;;1.60;0.70;;;6.80;99.90;;;;;;5074774;28;20271;-66
2023/03/20 05:02:36;;;;;;;1.37;0.80;;;6.80;99.90;;;;;;5074194;28;20573;-66
2023/03/20 05:05:02;;;;;;;4.80;0.93;;;6.80;99.90;;;;;;5074880;28;20558;-66
2023/03/20 05:07:28;;;;;;;1.77;0.90;;;6.80;99.90;;;;;;5074217;28;20185;-66
2023/03/20 05:09:54;;;;;;;5.50;0.90;;;6.80;99.90;;;;;;5074587;28;20426;-66
2023/03/20 05:12:20;;;;;;;1.60;0.67;;;6.80;99.90;;;;;;5074084;28;20180;-67
2023/03/20 05:14:45;;;;;;;2.73;1.17;;;6.80;99.90;;;;;;5073737;28;20187;-66
2023/03/20 05:17:11;;;;;;;2.73;0.80;;;6.80;99.90;;;;;;5074910;28;20203;-67
2023/03/20 05:19:37;;;;;;;2.70;0.80;;;6.80;99.90;;;;;;5074744;28;20678;-66
2023/03/20 05:22:03;;;;;;;1.50;0.70;;;6.80;99.90;;;;;;5074393;28;20622;-66
2023/03/20 05:24:30;;;;;;;1.40;0.73;;;6.90;99.90;;;;;;5074371;28;20419;-66
2023/03/20 05:26:56;;;;;;;1.30;0.70;;;6.90;99.90;;;;;;5074534;28;20735;-66
2023/03/20 05:29:22;;;;;;;1.87;0.67;;;6.90;99.90;;;;;;5073979;28;20457;-66
2023/03/20 05:31:48;;;;;;;1.50;0.90;;;6.90;99.90;;;;;;5073834;28;20435;-66
2023/03/20 05:34:13;;;;;;;1.20;0.60;;;7.00;99.90;;;;;;5074014;28;20192;-66
2023/03/20 05:36:39;;;;;;;1.60;0.70;;;7.00;99.90;;;;;;5073940;28;20193;-66
2023/03/20 05:39:05;;;;;;;1.50;0.70;;;7.00;99.90;;;;;;5073909;28;20608;-66
2023/03/20 05:41:30;;;;;;;1.20;0.53;;;7.00;99.90;;;;;;5073823;28;20199;-66
2023/03/20 05:43:56;;;;;;;1.20;0.50;;;7.00;99.90;;;;;;5073538;28;20189;-66
2023/03/20 05:46:22;;;;;;;2.03;1.00;;;7.00;99.90;;;;;;5073860;28;20224;-66
2023/03/20 05:48:48;;;;;;;1.93;0.80;;;7.00;99.90;;;;;;5073973;28;20279;-66
2023/03/20 05:51:13;;;;;;;1.80;0.90;;;7.00;99.90;;;;;;5073784;28;20784;-66
2023/03/20 05:53:39;;;;;;;1.87;0.83;;;7.00;99.90;;;;;;5073518;28;20181;-67
2023/03/20 05:56:05;;;;;;;1.43;0.73;;;7.00;99.90;;;;;;5073367;28;20185;-66
2023/03/20 05:58:31;;;;;;;1.93;0.77;;;7.00;99.90;;;;;;5072916;28;20189;-66
2023/03/20 06:00:57;;;;;;;1.33;0.67;;;7.10;99.90;;;;;;5072878;28;20841;-66
2023/03/20 06:03:23;;;;;;;1.40;0.87;;;7.10;99.90;;;;;;5072480;28;20311;-66
2023/03/20 06:05:48;;;;;;;1.40;0.73;;;7.20;99.90;;;;;;5072724;28;20523;-67
2023/03/20 06:08:14;;;;;;;2.70;0.80;;;7.20;99.90;;;;;;5072847;28;20189;-66
2023/03/20 06:10:40;;;;;;;1.63;1.00;;;7.30;99.90;;;;;;5072995;28;20214;-66
2023/03/20 06:13:06;;;;;;;1.60;0.93;;;7.30;99.90;;;;;;5072155;28;20927;-67
2023/03/20 06:15:31;;;;;;;1.53;0.67;;;7.40;99.90;;;;;;5072645;28;20188;-67
2023/03/20 06:17:57;;;;;;;1.17;0.50;;;7.40;99.90;;;;;;5072319;28;20189;-70
2023/03/20 06:20:23;;;;;;;1.60;0.80;;;7.40;99.90;;;;;;5072303;28;20214;-67
2023/03/20 06:22:49;;;;;;;2.13;1.10;;;7.50;99.90;;;;;;5071465;28;20192;-67
2023/03/20 06:25:15;;;;;;;1.77;1.23;;;7.50;99.90;;;;;;5072104;28;20928;-66
2023/03/20 06:27:41;;;;;;;1.87;1.00;;;7.60;99.90;;;;;;5071935;28;20177;-66
2023/03/20 06:30:07;;;;;;;3.10;1.17;;;7.60;99.90;;;;;;5072367;28;20196;-66
2023/03/20 06:32:33;;;;;;;2.60;1.07;;;7.80;99.90;;;;;;5071511;28;20185;-66
2023/03/20 06:34:58;;;;;;;2.10;1.00;;;7.80;99.90;;;;;;5071953;28;20790;-66
2023/03/20 06:37:24;;;;;;;2.23;1.00;;;7.80;99.90;;;;;;5072178;28;20263;-67
2023/03/20 06:39:50;;;;;;;3.57;1.30;;;7.80;99.90;;;;;;5072329;28;20184;-67
2023/03/20 06:42:16;;;;;;;1.67;0.80;;;8.00;99.90;;;;;;5071848;28;20193;-67
2023/03/20 06:44:42;;;;;;;1.43;1.00;;;8.00;99.90;;;;;;5071263;28;20704;-67
2023/03/20 06:47:08;;;;;;;1.77;0.90;;;8.00;99.90;;;;;;5071006;28;20454;-66
2023/03/20 06:49:34;;;;;;;2.27;0.90;;;8.10;99.90;;;;;;5071406;28;21103;-66
2023/03/20 06:51:59;;;;;;;3.10;1.37;;;8.20;99.90;;;;;;5071416;28;20547;-66
2023/03/20 06:54:26;;;;;;;7.77;1.03;;;8.30;99.90;;;;;;5071659;28;20185;-67
2023/03/20 06:56:51;;;;;;;1.47;0.80;;;8.40;99.90;;;;;;5071711;28;20192;-66
2023/03/20 06:59:17;;;;;;;1.93;1.00;;;8.50;99.90;;;;;;5071231;28;20431;-67
2023/03/20 07:01:43;;;;;;;1.73;0.90;;;8.50;99.90;;;;;;5070959;28;20197;-67
2023/03/20 07:04:09;;;;;;;1.53;0.80;;;8.60;99.90;;;;;;5071220;28;20435;-66
2023/03/20 07:06:34;;;;;;;1.53;0.70;;;8.60;99.90;;;;;;5071130;28;20563;-67
2023/03/20 07:09:00;;;;;;;1.80;0.90;;;8.60;99.90;;;;;;5069885;28;20693;-67
2023/03/20 07:11:26;;;;;;;2.53;0.93;;;8.80;99.90;;;;;;5069454;28;20251;-67
2023/03/20 07:13:52;;;;;;;3.43;0.80;;;8.90;99.90;;;;;;5069745;28;20173;-67
2023/03/20 07:16:18;;;;;;;4.40;1.33;;;9.10;99.90;;;;;;5071319;28;20450;-67
2023/03/20 07:18:43;;;;;;;1.70;1.10;;;9.30;99.90;;;;;;5070809;28;20860;-67
2023/03/20 07:21:15;;;;;;;1.50;0.90;;;9.30;99.90;;;;;;5071439;28;20566;-66
2023/03/20 07:23:41;;;;;;;1.40;0.60;;;9.40;99.90;;;;;;5070533;28;20212;-67
2023/03/20 07:26:07;;;;;;;1.33;0.63;;;9.40;99.90;;;;;;5071372;28;20509;-67
2023/03/20 07:28:32;;;;;;;2.37;0.90;;;9.40;99.90;;;;;;5070405;28;20177;-67
2023/03/20 07:30:58;;;;;;;1.57;0.80;;;9.20;99.90;;;;;;5071077;28;20169;-67
2023/03/20 07:33:24;;;;;;;1.50;0.70;;;9.20;99.90;;;;;;5068400;28;20257;-67
2023/03/20 07:35:53;;;;;;;1.20;0.60;;;9.10;99.90;;;;;;5071327;28;20536;-67
2023/03/20 07:38:20;;;;;;;1.30;0.70;;;9.10;99.90;;;;;;5070483;28;20434;-67
2023/03/20 07:40:47;;;;;;;1.83;0.97;;;9.20;99.90;;;;;;5070931;28;20419;-67
2023/03/20 07:43:14;;;;;;;1.50;0.77;;;9.20;99.90;;;;;;5070123;28;20503;-67
2023/03/20 07:45:40;;;;;;;2.10;0.80;;;9.20;99.90;;;;;;5070747;28;20451;-66
2023/03/20 07:48:05;;;;;;;2.30;0.70;;;9.20;99.90;;;;;;5070588;28;20415;-67
2023/03/20 07:50:31;;;;;;;2.40;1.03;;;9.20;99.90;;;;;;5070758;28;20755;-67
2023/03/20 07:52:57;;;;;;;1.30;0.70;;;9.30;99.90;;;;;;5069964;28;20184;-67
2023/03/20 07:55:22;;;;;;;2.50;0.90;;;9.40;99.90;;;;;;5070708;28;20184;-67
2023/03/20 07:57:48;;;;;;;1.40;0.70;;;9.60;99.90;;;;;;5070219;28;20200;-67
2023/03/20 08:00:15;;;;;;;1.70;0.87;;;9.60;99.90;;;;;;5069577;28;20192;-66
2023/03/20 08:02:41;;;;;;;2.43;0.73;;;9.60;99.90;;;;;;5069017;28;20219;-67
2023/03/20 08:05:08;;;;;;;1.60;0.60;;;9.60;99.90;;;;;;5070576;28;21264;-67
2023/03/20 08:07:34;;;;;;;1.67;0.90;;;9.60;99.90;;;;;;5069820;28;20435;-67
2023/03/20 08:10:00;;;;;;;2.40;1.00;;;9.70;99.90;;;;;;5070148;28;20415;-67
2023/03/20 08:12:26;;;;;;;2.50;0.80;;;9.60;99.90;;;;;;5069017;28;20745;-66
2023/03/20 08:14:51;;;;;;;2.10;0.87;;;9.70;99.90;;;;;;5068393;28;20419;-67
2023/03/20 08:17:17;;;;;;;1.50;0.90;;;9.70;99.90;;;;;;5068680;28;20180;-67
2023/03/20 08:19:43;;;;;;;1.40;0.77;;;9.70;99.90;;;;;;5068915;28;20535;-66
2023/03/20 08:22:08;;;;;;;2.37;0.90;;;9.80;99.90;;;;;;5068674;28;20608;-66
2023/03/20 08:24:34;;;;;;;1.40;0.80;;;9.80;99.90;;;;;;5069031;28;20183;-66
2023/03/20 08:27:00;;;;;;;1.60;0.70;;;9.70;99.90;;;;;;5069479;28;20208;-66
2023/03/20 08:29:25;;;;;;;1.93;0.80;;;9.70;99.90;;;;;;5070196;28;20201;-66
2023/03/20 08:31:51;;;;;;;2.03;0.87;;;9.80;99.90;;;;;;5068688;28;20243;-66
2023/03/20 08:34:16;;;;;;;1.50;0.70;;;9.80;99.90;;;;;;5069884;28;20181;-66
2023/03/20 08:36:42;;;;;;;1.97;0.60;;;9.80;99.90;;;;;;5070065;28;20661;-64
2023/03/20 08:39:08;;;;;;;2.00;0.90;;;9.80;99.90;;;;;;5070093;28;20189;-65
2023/03/20 08:41:37;;;;;;;1.30;0.67;;;9.80;99.90;;;;;;5069705;28;20488;-65
2023/03/20 08:44:04;;;;;;;1.93;0.70;;;9.80;99.90;;;;;;5069580;28;20197;-65
2023/03/20 08:46:30;;;;;;;2.37;1.10;;;9.90;99.90;;;;;;5069853;28;20459;-65
2023/03/20 08:48:57;;;;;;;2.30;0.90;;;10.10;99.90;;;;;;5069901;28;20412;-65
2023/03/20 08:51:23;;;;;;;2.03;1.10;;;10.20;99.90;;;;;;5069816;28;20256;-65
2023/03/20 08:53:49;;;;;;;1.50;0.80;;;10.30;99.90;;;;;;5069877;28;20423;-65
2023/03/20 08:56:15;;;;;;;1.40;0.73;;;10.40;99.90;;;;;;5070109;28;20442;-65
2023/03/20 08:58:40;;;;;;;2.27;0.80;;;10.60;99.90;;;;;;5069748;28;20189;-65
2023/03/20 09:01:07;;;;;;;1.40;0.70;;;10.60;99.90;;;;;;5069616;28;20509;-65
2023/03/20 09:03:33;;;;;;;1.87;0.83;;;10.60;99.90;;;;;;5069090;28;20246;-64
2023/03/20 09:05:59;;;;;;;3.30;0.80;;;10.80;99.90;;;;;;5069972;28;21018;-65
2023/03/20 09:08:25;;;;;;;2.03;0.90;;;10.90;99.90;;;;;;5069834;28;20177;-65
2023/03/20 09:10:50;;;;;;;1.50;0.70;;;11.30;99.90;;;;;;5071201;28;20538;-64
2023/03/20 09:13:16;;;;;;;1.53;0.80;;;11.20;99.90;;;;;;5073032;28;20177;-65
2023/03/20 09:15:42;;;;;;;2.40;1.17;;;11.10;99.90;;;;;;5073964;28;20181;-65
2023/03/20 09:18:08;;;;;;;1.97;1.07;;;11.10;99.90;;;;;;5073368;28;20182;-66
2023/03/20 09:20:34;;;;;;;1.60;0.80;;;11.40;99.90;;;;;;5073574;28;20693;-66
2023/03/20 09:23:00;;;;;;;1.60;0.97;;;11.50;99.90;;;;;;5072704;28;20447;-65
2023/03/20 09:25:25;;;;;;;1.57;0.80;;;11.40;99.90;;;;;;5073409;28;20525;-66
2023/03/20 09:27:54;;;;;;;1.70;0.77;;;11.30;99.90;;;;;;5072640;28;20185;-65
2023/03/20 09:30:22;;;;;;;1.83;0.60;;;11.20;99.90;;;;;;5073358;28;20181;-65
2023/03/20 09:32:48;;;;;;;2.03;0.80;;;11.20;99.90;;;;;;5072720;28;20430;-65
2023/03/20 09:35:14;;;;;;;1.40;0.70;;;11.30;99.90;;;;;;5073171;28;20426;-66
2023/03/20 09:37:39;;;;;;;2.00;1.00;;;11.40;99.90;;;;;;5072688;28;20510;-66
2023/03/20 09:40:06;;;;;;;2.10;1.10;;;11.50;99.90;;;;;;5072907;28;20419;-65
2023/03/20 09:42:46;;;;;;;4.80;1.10;;;11.60;99.90;;;;;;5071840;28;20264;-65
2023/03/20 09:45:40;;;;;;;2.90;0.90;;;11.50;99.90;;;;;;5059623;28;20457;-65
2023/03/20 09:48:18;;;;;;;2.17;1.07;;;11.60;99.90;;;;;;5069178;28;20437;-65
2023/03/20 09:51:24;;;;;;;4.20;0.80;;;11.70;99.90;;;;;;5067387;28;20430;-66
2023/03/20 09:54:01;;;;;;;2.20;1.00;;;11.80;99.90;;;;;;5059381;28;20438;-65
2023/03/20 09:56:28;;;;;;;1.70;1.10;;;11.70;99.90;;;;;;5070261;28;20426;-65
2023/03/20 09:58:57;;;;;;;1.73;0.70;;;11.80;99.90;;;;;;5070464;28;20494;-65
2023/03/20 10:01:34;;;;;;;1.37;0.67;;;11.80;99.90;;;;;;5071472;28;20530;-65
2023/03/20 10:04:06;;;;;;;2.90;1.10;;;11.80;99.90;;;;;;5071247;28;20718;-66
2023/03/20 10:06:32;;;;;;;2.27;1.10;;;11.90;99.90;;;;;;5070338;28;20470;-66
2023/03/20 10:08:58;;;;;;;4.30;1.10;;;11.90;99.90;;;;;;5071189;28;20421;-66
2023/03/20 10:11:45;;;;;;;2.17;0.90;;;11.80;99.90;;;;;;5072361;28;20422;-65
2023/03/20 10:14:13;;;;;;;1.60;0.60;;;11.80;99.90;;;;;;5071076;28;20227;-65
2023/03/20 10:17:14;;;;;;;2.17;1.07;;;11.80;99.90;;;;;;5072010;28;20514;-65
2023/03/20 10:19:39;;;;;;;2.40;1.13;;;11.90;99.90;;;;;;5071492;28;20421;-65
2023/03/20 10:22:35;;;;;;;1.80;1.07;;;12.10;99.90;;;;;;5070506;28;20420;-65
2023/03/20 10:25:23;;;;;;;1.37;0.63;;;12.10;99.90;;;;;;5071687;28;20295;-65
2023/03/20 10:27:56;;;;;;;6.53;0.80;;;12.30;99.90;;;;;;5071463;28;21099;-65
2023/03/20 10:31:01;;;;;;;1.90;0.80;;;12.60;99.10;;;;;;5071499;28;20407;-65
2023/03/20 10:33:41;;;;;;;1.40;0.70;;;12.80;98.90;;;;;;5071051;28;20454;-65
2023/03/20 10:36:28;;;;;;;1.70;0.90;;;12.80;98.00;;;;;;5071351;28;20426;-65
2023/03/20 10:38:58;;;;;;;1.50;0.67;;;12.70;97.60;;;;;;5068641;28;20441;-65
2023/03/20 10:41:29;;;;;;;1.90;0.90;;;12.40;98.00;;;;;;5071200;28;20415;-65
2023/03/20 10:43:56;;;;;;;2.07;1.00;;;12.30;97.80;;;;;;5070835;28;20457;-65
2023/03/20 10:46:27;;;;;;;9.57;1.10;;;12.00;98.30;;;;;;5071118;28;20455;-65
2023/03/20 10:49:20;;;;;;;1.97;0.90;;;11.90;98.00;;;;;;5070767;28;20427;-64
2023/03/20 10:51:54;;;;;;;1.70;0.93;;;11.80;98.30;;;;;;5071004;28;20454;-65
2023/03/20 10:54:19;;;;;;;2.07;0.77;;;11.70;98.80;;;;;;5070858;28;20411;-65
2023/03/20 10:56:48;;;;;;;1.70;0.83;;;11.60;99.10;;;;;;5071098;28;20426;-65
2023/03/20 10:59:16;;;;;;;6.07;1.27;;;11.60;98.80;;;;;;5070457;28;20641;-65
2023/03/20 11:01:42;;;;;;;1.90;0.90;;;11.60;98.70;;;;;;5070189;28;20435;-65
2023/03/20 11:04:08;;;;;;;2.13;0.80;;;11.60;98.80;;;;;;5070194;28;20408;-65
2023/03/20 11:06:46;;;;;;;4.57;1.00;;;11.60;98.40;;;;;;5069830;28;20208;-64
2023/03/20 11:09:19;;;;;;;1.90;1.00;;;11.40;98.10;;;;;;5070071;28;20184;-65
2023/03/20 11:11:50;;;;;;;1.50;0.67;;;11.40;98.30;;;;;;5069641;28;20419;-64
2023/03/20 11:14:37;;;;;;;1.70;0.73;;;11.40;98.60;;;;;;5069783;28;20435;-65
2023/03/20 11:17:05;;;;;;;1.90;0.90;;;11.40;98.40;;;;;;5069928;28;20430;-65
2023/03/20 11:19:35;;;;;;;2.13;0.70;;;11.40;98.40;;;;;;5070163;28;20807;-65
2023/03/20 11:22:27;;;;;;;2.07;0.97;;;11.50;98.60;;;;;;5069875;28;20507;-65
2023/03/20 11:25:00;;;;;;;1.90;0.97;;;11.60;98.60;;;;;;5070132;28;20419;-65
2023/03/20 11:27:35;;;;;;;1.50;0.67;;;11.90;98.70;;;;;;5070152;28;20420;-65
2023/03/20 11:30:04;;;;;;;1.53;0.60;;;11.80;98.70;;;;;;5070364;28;20962;-65
2023/03/20 11:32:39;;;;;;;2.47;0.97;;;11.90;98.50;;;;;;5069962;28;20930;-65
2023/03/20 11:35:17;;;;;;;1.37;0.67;;;11.90;97.50;;;;;;5070082;28;20919;-65
2023/03/20 11:37:46;;;;;;;7.70;0.70;;;11.90;97.50;;;;;;5070252;28;20427;-65
2023/03/20 11:40:12;;;;;;;1.33;0.70;;;11.80;97.50;;;;;;5070423;28;20947;-65
2023/03/20 11:42:37;;;;;;;1.20;0.50;;;11.70;97.60;;;;;;5069368;28;20506;-65
2023/03/20 11:45:14;;;;;;;1.30;0.50;;;11.70;97.70;;;;;;5069870;28;20273;-65
2023/03/20 11:47:40;;;;;;;1.30;0.60;;;11.70;98.20;;;;;;5069639;28;20202;-65
2023/03/20 11:50:43;;;;;;;1.30;0.60;;;11.80;96.80;;;;;;5064241;28;20431;-65
2023/03/20 11:53:38;;;;;;;1.30;0.60;;;11.70;97.30;;;;;;5065237;28;20434;-65
2023/03/20 11:56:22;;;;;;;1.53;0.70;;;11.80;96.50;;;;;;5068459;28;20423;-65
2023/03/20 11:59:13;;;;;;;2.33;0.80;;;11.70;97.40;;;;;;5068034;28;20415;-65
2023/03/20 12:01:52;;;;;;;3.00;1.03;;;11.70;97.50;;;;;;5068168;28;20484;-65
2023/03/20 12:04:24;;;;;;;1.60;0.87;;;11.60;97.70;;;;;;5068386;28;20414;-66
2023/03/20 12:06:59;;;;;;;2.37;0.70;;;11.60;97.80;;;;;;5068343;28;20504;-67
2023/03/20 12:09:42;;;;;;;2.60;1.00;;;11.50;98.00;;;;;;5066390;28;20883;-66
2023/03/20 12:12:29;;;;;;;1.60;0.80;;;11.50;98.00;;;;;;5067919;28;20415;-66
2023/03/20 12:15:25;;;;;;;1.30;0.70;;;11.60;97.70;;;;;;5068424;28;20431;-66
2023/03/20 12:17:57;;;;;;;1.50;0.60;;;11.60;97.70;;;;;;5068087;28;20530;-66
2023/03/20 12:20:25;;;;;;;1.47;0.80;;;11.80;97.80;;;;;;5068559;28;20447;-67
2023/03/20 12:22:57;;;;;;;2.63;0.93;;;12.00;96.90;;;;;;5067913;28;20426;-67
2023/03/20 12:25:26;;;;;;;1.50;0.60;;;12.00;96.90;;;;;;5068485;28;20454;-67
2023/03/20 12:28:15;;;;;;;1.53;0.77;;;12.10;97.30;;;;;;5069367;28;20422;-67
2023/03/20 12:30:50;;;;;;;1.40;0.70;;;12.20;97.10;;;;;;5055332;28;20912;-66
2023/03/20 12:33:35;;;;;;;2.13;1.00;;;12.20;96.40;;;;;;5068921;28;20415;-66
2023/03/20 12:36:03;;;;;;;1.30;0.63;;;12.00;96.90;;;;;;5069847;28;20455;-66
2023/03/20 12:38:31;;;;;;;2.83;0.77;;;12.00;96.40;;;;;;5069523;28;20480;-66
2023/03/20 12:41:39;;;;;;;1.30;0.70;;;11.90;96.30;;;;;;5070032;28;20522;-66
2023/03/20 12:44:12;;;;;;;2.53;1.20;;;12.00;96.00;;;;;;5060047;28;20415;-66
2023/03/20 12:46:43;;;;;;;1.70;0.70;;;12.00;96.60;;;;;;5072857;28;20498;-66
2023/03/20 12:49:27;;;;;;;2.90;1.27;;;11.90;96.20;;;;;;5073893;28;20525;-66
2023/03/20 12:52:16;;;;;;;3.53;1.37;;;11.90;96.70;;;;;;5061255;28;20498;-66
2023/03/20 12:55:03;;;;;;;1.43;0.80;;;11.90;96.50;;;;;;5073502;28;20456;-66
2023/03/20 12:58:13;;;;;;;1.90;0.90;;;11.90;96.50;;;;;;5073957;28;20407;-66
2023/03/20 13:01:02;;;;;;;1.37;0.67;;;11.90;96.00;;;;;;5073240;28;20454;-66
2023/03/20 13:03:40;;;;;;;1.80;0.70;;;12.10;96.30;;;;;;5032181;28;20450;-65
2023/03/20 13:06:11;;;;;;;3.73;1.10;;;12.30;95.30;;;;;;5073478;28;20458;-66
2023/03/20 13:08:44;;;;;;;1.50;0.60;;;12.50;95.10;;;;;;5071361;28;20422;-65
2023/03/20 13:11:20;;;;;;;1.47;0.77;;;12.50;94.80;;;;;;5071523;28;20439;-66
2023/03/20 13:13:57;;;;;;;1.47;0.70;;;12.60;95.00;;;;;;5073380;28;20786;-66